sensor_id;sensor_type;location;lat;lon;timestamp;temperature;humidity
31731;DHT22;18310;55.586;12.286;2022-10-01T00:02:57;14.60;68.80
31731;DHT22;18310;55.586;12.286;2022-10-01T00:06:03;14.80;68.90
31731;DHT22;18310;55.586;12.286;2022-10-01T00:09:12;14.80;69.00
31731;DHT22;18310;55.586;12.286;2022-10-01T00:12:15;14.80;69.10
31731;DHT22;18310;55.586;12.286;2022-10-01T00:15:18;14.70;69.00
31731;DHT22;18310;55.586;12.286;2022-10-01T00:18:21;14.80;69.10
31731;DHT22;18310;55.586;12.286;2022-10-01T00:21:27;14.80;69.00
31731;DHT22;18310;55.586;12.286;2022-10-01T00:24:33;14.80;69.00
31731;DHT22;18310;55.586;12.286;2022-10-01T00:27:38;14.80;69.00
31731;DHT22;18310;55.586;12.286;2022-10-01T00:30:45;14.80;69.10
31731;DHT22;18310;55.586;12.286;2022-10-01T00:33:51;14.80;69.40
31731;DHT22;18310;55.586;12.286;2022-10-01T00:36:55;14.80;69.10
31731;DHT22;18310;55.586;12.286;2022-10-01T00:40:00;14.80;69.10
31731;DHT22;18310;55.586;12.286;2022-10-01T00:43:19;14.80;69.00
31731;DHT22;18310;55.586;12.286;2022-10-01T00:46:25;14.80;69.10
31731;DHT22;18310;55.586;12.286;2022-10-01T00:49:32;14.80;68.90
31731;DHT22;18310;55.586;12.286;2022-10-01T00:52:39;14.80;68.90
31731;DHT22;18310;55.586;12.286;2022-10-01T00:55:47;14.80;68.90
31731;DHT22;18310;55.586;12.286;2022-10-01T00:58:56;14.80;69.00
31731;DHT22;18310;55.586;12.286;2022-10-01T01:01:59;14.80;68.90
31731;DHT22;18310;55.586;12.286;2022-10-01T01:05:04;15.40;69.20
31731;DHT22;18310;55.586;12.286;2022-10-01T01:08:09;14.80;68.90
31731;DHT22;18310;55.586;12.286;2022-10-01T01:11:23;14.80;68.90
31731;DHT22;18310;55.586;12.286;2022-10-01T01:14:40;14.80;68.90
31731;DHT22;18310;55.586;12.286;2022-10-01T01:17:53;14.90;69.50
31731;DHT22;18310;55.586;12.286;2022-10-01T01:21:19;14.80;68.90
31731;DHT22;18310;55.586;12.286;2022-10-01T01:24:39;14.90;68.90
31731;DHT22;18310;55.586;12.286;2022-10-01T01:28:02;14.90;68.80
31731;DHT22;18310;55.586;12.286;2022-10-01T01:31:13;14.80;68.70
31731;DHT22;18310;55.586;12.286;2022-10-01T01:34:20;14.90;68.70
31731;DHT22;18310;55.586;12.286;2022-10-01T01:37:31;14.90;68.70
31731;DHT22;18310;55.586;12.286;2022-10-01T01:40:40;14.90;68.60
31731;DHT22;18310;55.586;12.286;2022-10-01T01:43:49;14.90;68.60
31731;DHT22;18310;55.586;12.286;2022-10-01T01:46:56;14.90;68.50
31731;DHT22;18310;55.586;12.286;2022-10-01T01:50:02;14.90;68.60
31731;DHT22;18310;55.586;12.286;2022-10-01T01:53:08;15.00;68.70
31731;DHT22;18310;55.586;12.286;2022-10-01T01:56:12;14.90;68.10
31731;DHT22;18310;55.586;12.286;2022-10-01T01:59:17;15.00;68.70
31731;DHT22;18310;55.586;12.286;2022-10-01T02:02:25;15.70;69.00
31731;DHT22;18310;55.586;12.286;2022-10-01T02:05:37;14.90;68.50
31731;DHT22;18310;55.586;12.286;2022-10-01T02:08:47;15.10;68.60
31731;DHT22;18310;55.586;12.286;2022-10-01T02:12:04;15.10;68.50
31731;DHT22;18310;55.586;12.286;2022-10-01T02:15:21;15.10;68.30
31731;DHT22;18310;55.586;12.286;2022-10-01T02:18:33;15.10;68.30
31731;DHT22;18310;55.586;12.286;2022-10-01T02:21:46;15.10;68.30
31731;DHT22;18310;55.586;12.286;2022-10-01T02:25:00;15.10;68.20
31731;DHT22;18310;55.586;12.286;2022-10-01T02:28:10;15.10;68.30
31731;DHT22;18310;55.586;12.286;2022-10-01T02:31:18;15.10;68.40
31731;DHT22;18310;55.586;12.286;2022-10-01T02:34:26;15.10;68.90
31731;DHT22;18310;55.586;12.286;2022-10-01T02:37:33;15.10;68.30
31731;DHT22;18310;55.586;12.286;2022-10-01T02:40:41;15.00;68.20
31731;DHT22;18310;55.586;12.286;2022-10-01T02:43:49;15.10;68.10
31731;DHT22;18310;55.586;12.286;2022-10-01T02:47:02;15.10;67.80
31731;DHT22;18310;55.586;12.286;2022-10-01T02:50:08;15.20;67.80
31731;DHT22;18310;55.586;12.286;2022-10-01T02:53:19;15.10;67.80
31731;DHT22;18310;55.586;12.286;2022-10-01T02:56:27;15.10;67.60
31731;DHT22;18310;55.586;12.286;2022-10-01T02:59:50;15.10;67.60
31731;DHT22;18310;55.586;12.286;2022-10-01T03:02:56;15.10;67.40
31731;DHT22;18310;55.586;12.286;2022-10-01T03:06:00;15.10;67.40
31731;DHT22;18310;55.586;12.286;2022-10-01T03:09:03;15.10;67.40
31731;DHT22;18310;55.586;12.286;2022-10-01T03:12:09;15.20;67.70
31731;DHT22;18310;55.586;12.286;2022-10-01T03:15:15;15.20;67.80
31731;DHT22;18310;55.586;12.286;2022-10-01T03:18:21;15.10;67.70
31731;DHT22;18310;55.586;12.286;2022-10-01T03:21:24;15.20;67.70
31731;DHT22;18310;55.586;12.286;2022-10-01T03:24:27;15.20;67.50
31731;DHT22;18310;55.586;12.286;2022-10-01T03:27:31;15.20;67.50
31731;DHT22;18310;55.586;12.286;2022-10-01T03:30:34;15.20;67.50
31731;DHT22;18310;55.586;12.286;2022-10-01T03:33:39;15.20;67.60
31731;DHT22;18310;55.586;12.286;2022-10-01T03:36:42;15.20;67.80
31731;DHT22;18310;55.586;12.286;2022-10-01T03:39:45;15.30;67.60
31731;DHT22;18310;55.586;12.286;2022-10-01T03:42:49;15.20;67.60
31731;DHT22;18310;55.586;12.286;2022-10-01T03:45:52;15.30;67.70
31731;DHT22;18310;55.586;12.286;2022-10-01T03:48:57;15.30;67.70
31731;DHT22;18310;55.586;12.286;2022-10-01T03:52:02;15.30;67.70
31731;DHT22;18310;55.586;12.286;2022-10-01T03:55:07;15.40;67.80
31731;DHT22;18310;55.586;12.286;2022-10-01T03:58:11;15.40;67.80
31731;DHT22;18310;55.586;12.286;2022-10-01T04:01:14;15.40;67.80
31731;DHT22;18310;55.586;12.286;2022-10-01T04:04:19;15.00;67.40
31731;DHT22;18310;55.586;12.286;2022-10-01T04:07:22;15.30;67.60
31731;DHT22;18310;55.586;12.286;2022-10-01T04:10:25;15.40;67.60
31731;DHT22;18310;55.586;12.286;2022-10-01T04:13:28;15.40;67.60
31731;DHT22;18310;55.586;12.286;2022-10-01T04:16:31;15.40;67.60
31731;DHT22;18310;55.586;12.286;2022-10-01T04:19:38;15.40;67.60
31731;DHT22;18310;55.586;12.286;2022-10-01T04:22:42;15.40;67.50
31731;DHT22;18310;55.586;12.286;2022-10-01T04:25:45;15.40;67.50
31731;DHT22;18310;55.586;12.286;2022-10-01T04:28:48;15.40;67.60
31731;DHT22;18310;55.586;12.286;2022-10-01T04:31:51;15.50;67.60
31731;DHT22;18310;55.586;12.286;2022-10-01T04:34:56;15.40;67.50
31731;DHT22;18310;55.586;12.286;2022-10-01T04:38:01;15.50;67.60
31731;DHT22;18310;55.586;12.286;2022-10-01T04:41:06;15.50;67.40
31731;DHT22;18310;55.586;12.286;2022-10-01T04:44:09;15.10;67.00
31731;DHT22;18310;55.586;12.286;2022-10-01T04:47:13;15.50;67.20
31731;DHT22;18310;55.586;12.286;2022-10-01T04:50:18;15.50;67.30
31731;DHT22;18310;55.586;12.286;2022-10-01T04:53:22;15.60;67.10
31731;DHT22;18310;55.586;12.286;2022-10-01T04:56:25;15.60;67.10
31731;DHT22;18310;55.586;12.286;2022-10-01T04:59:29;15.50;67.10
31731;DHT22;18310;55.586;12.286;2022-10-01T05:02:32;15.60;67.00
31731;DHT22;18310;55.586;12.286;2022-10-01T05:05:37;15.60;67.00
31731;DHT22;18310;55.586;12.286;2022-10-01T05:08:41;15.60;67.10
31731;DHT22;18310;55.586;12.286;2022-10-01T05:11:44;15.20;66.70
31731;DHT22;18310;55.586;12.286;2022-10-01T05:14:47;15.60;67.00
31731;DHT22;18310;55.586;12.286;2022-10-01T05:17:51;16.30;67.50
31731;DHT22;18310;55.586;12.286;2022-10-01T05:20:56;15.60;66.90
31731;DHT22;18310;55.586;12.286;2022-10-01T05:24:00;15.50;66.80
31731;DHT22;18310;55.586;12.286;2022-10-01T05:27:03;15.00;67.10
31731;DHT22;18310;55.586;12.286;2022-10-01T05:30:09;15.50;66.90
31731;DHT22;18310;55.586;12.286;2022-10-01T05:33:14;15.50;66.70
31731;DHT22;18310;55.586;12.286;2022-10-01T05:36:18;15.30;66.70
31731;DHT22;18310;55.586;12.286;2022-10-01T05:39:22;15.50;66.90
31731;DHT22;18310;55.586;12.286;2022-10-01T05:42:25;16.00;67.40
31731;DHT22;18310;55.586;12.286;2022-10-01T05:45:29;15.50;67.30
31731;DHT22;18310;55.586;12.286;2022-10-01T05:48:33;16.60;68.10
31731;DHT22;18310;55.586;12.286;2022-10-01T05:51:38;15.40;67.40
31731;DHT22;18310;55.586;12.286;2022-10-01T05:54:41;15.50;67.20
31731;DHT22;18310;55.586;12.286;2022-10-01T05:57:52;15.50;67.20
31731;DHT22;18310;55.586;12.286;2022-10-01T06:00:56;15.50;67.40
31731;DHT22;18310;55.586;12.286;2022-10-01T06:04:00;15.50;67.40
31731;DHT22;18310;55.586;12.286;2022-10-01T06:07:05;15.50;67.40
31731;DHT22;18310;55.586;12.286;2022-10-01T06:10:08;15.50;67.50
31731;DHT22;18310;55.586;12.286;2022-10-01T06:13:11;15.50;67.40
31731;DHT22;18310;55.586;12.286;2022-10-01T06:16:18;15.50;67.40
31731;DHT22;18310;55.586;12.286;2022-10-01T06:19:22;15.50;67.50
31731;DHT22;18310;55.586;12.286;2022-10-01T06:22:26;15.50;67.40
31731;DHT22;18310;55.586;12.286;2022-10-01T06:25:29;15.50;67.30
31731;DHT22;18310;55.586;12.286;2022-10-01T06:28:32;15.70;67.40
31731;DHT22;18310;55.586;12.286;2022-10-01T06:31:36;15.50;67.40
31731;DHT22;18310;55.586;12.286;2022-10-01T06:34:39;15.50;67.60
31731;DHT22;18310;55.586;12.286;2022-10-01T06:37:44;15.50;67.60
31731;DHT22;18310;55.586;12.286;2022-10-01T06:40:51;15.60;68.00
31731;DHT22;18310;55.586;12.286;2022-10-01T06:43:54;16.10;67.70
31731;DHT22;18310;55.586;12.286;2022-10-01T06:46:58;15.60;67.40
31731;DHT22;18310;55.586;12.286;2022-10-01T06:50:01;15.60;67.30
31731;DHT22;18310;55.586;12.286;2022-10-01T06:53:05;15.70;67.30
31731;DHT22;18310;55.586;12.286;2022-10-01T06:56:08;15.70;67.10
31731;DHT22;18310;55.586;12.286;2022-10-01T06:59:11;15.70;67.10
31731;DHT22;18310;55.586;12.286;2022-10-01T07:02:21;15.70;67.00
31731;DHT22;18310;55.586;12.286;2022-10-01T07:05:29;15.70;66.90
31731;DHT22;18310;55.586;12.286;2022-10-01T07:08:34;14.90;66.50
31731;DHT22;18310;55.586;12.286;2022-10-01T07:11:37;15.80;67.10
31731;DHT22;18310;55.586;12.286;2022-10-01T07:14:42;15.80;67.00
31731;DHT22;18310;55.586;12.286;2022-10-01T07:17:47;15.80;67.00
31731;DHT22;18310;55.586;12.286;2022-10-01T07:20:51;15.80;66.70
31731;DHT22;18310;55.586;12.286;2022-10-01T07:23:56;15.80;66.80
31731;DHT22;18310;55.586;12.286;2022-10-01T07:27:00;15.80;66.50
31731;DHT22;18310;55.586;12.286;2022-10-01T07:30:08;15.90;66.50
31731;DHT22;18310;55.586;12.286;2022-10-01T07:33:13;15.90;66.20
31731;DHT22;18310;55.586;12.286;2022-10-01T07:36:16;15.80;66.30
31731;DHT22;18310;55.586;12.286;2022-10-01T07:39:21;15.90;66.50
31731;DHT22;18310;55.586;12.286;2022-10-01T07:42:24;15.90;66.50
31731;DHT22;18310;55.586;12.286;2022-10-01T07:45:29;15.90;66.20
31731;DHT22;18310;55.586;12.286;2022-10-01T07:48:32;15.90;65.90
31731;DHT22;18310;55.586;12.286;2022-10-01T07:51:35;16.00;65.80
31731;DHT22;18310;55.586;12.286;2022-10-01T07:54:40;16.00;65.60
31731;DHT22;18310;55.586;12.286;2022-10-01T07:57:49;16.90;66.00
31731;DHT22;18310;55.586;12.286;2022-10-01T08:00:52;16.00;65.20
31731;DHT22;18310;55.586;12.286;2022-10-01T08:04:02;16.00;65.20
31731;DHT22;18310;55.586;12.286;2022-10-01T08:07:27;16.00;65.10
31731;DHT22;18310;55.586;12.286;2022-10-01T08:10:35;16.00;65.10
31731;DHT22;18310;55.586;12.286;2022-10-01T08:13:39;16.00;65.20
31731;DHT22;18310;55.586;12.286;2022-10-01T08:16:45;16.00;65.20
31731;DHT22;18310;55.586;12.286;2022-10-01T08:19:48;16.40;64.90
31731;DHT22;18310;55.586;12.286;2022-10-01T08:22:52;16.50;65.00
31731;DHT22;18310;55.586;12.286;2022-10-01T08:26:00;16.00;64.70
31731;DHT22;18310;55.586;12.286;2022-10-01T08:29:04;15.60;64.10
31731;DHT22;18310;55.586;12.286;2022-10-01T08:32:08;16.00;64.60
31731;DHT22;18310;55.586;12.286;2022-10-01T08:35:12;15.90;64.60
31731;DHT22;18310;55.586;12.286;2022-10-01T08:38:15;16.00;64.70
31731;DHT22;18310;55.586;12.286;2022-10-01T08:41:33;16.70;65.20
31731;DHT22;18310;55.586;12.286;2022-10-01T08:44:45;16.00;64.50
31731;DHT22;18310;55.586;12.286;2022-10-01T08:47:53;16.00;64.60
31731;DHT22;18310;55.586;12.286;2022-10-01T08:51:08;16.10;64.90
31731;DHT22;18310;55.586;12.286;2022-10-01T08:54:25;16.10;63.90
31731;DHT22;18310;55.586;12.286;2022-10-01T08:57:38;16.20;63.50
31731;DHT22;18310;55.586;12.286;2022-10-01T09:00:46;16.20;63.20
31731;DHT22;18310;55.586;12.286;2022-10-01T09:03:50;16.20;63.40
31731;DHT22;18310;55.586;12.286;2022-10-01T09:07:01;16.20;63.30
31731;DHT22;18310;55.586;12.286;2022-10-01T09:10:21;16.30;62.60
31731;DHT22;18310;55.586;12.286;2022-10-01T09:13:54;16.30;62.20
31731;DHT22;18310;55.586;12.286;2022-10-01T09:17:14;16.30;62.00
31731;DHT22;18310;55.586;12.286;2022-10-01T09:20:25;16.80;62.90
31731;DHT22;18310;55.586;12.286;2022-10-01T09:23:35;16.30;62.20
31731;DHT22;18310;55.586;12.286;2022-10-01T09:26:46;17.00;62.50
31731;DHT22;18310;55.586;12.286;2022-10-01T09:29:55;16.30;61.70
31731;DHT22;18310;55.586;12.286;2022-10-01T09:33:07;16.40;61.90
31731;DHT22;18310;55.586;12.286;2022-10-01T09:36:20;16.30;62.00
31731;DHT22;18310;55.586;12.286;2022-10-01T09:39:32;16.30;62.20
31731;DHT22;18310;55.586;12.286;2022-10-01T09:42:40;16.30;61.50
31731;DHT22;18310;55.586;12.286;2022-10-01T09:45:45;16.10;61.70
31731;DHT22;18310;55.586;12.286;2022-10-01T09:48:55;16.40;61.40
31731;DHT22;18310;55.586;12.286;2022-10-01T09:52:06;16.40;61.40
31731;DHT22;18310;55.586;12.286;2022-10-01T09:55:24;16.40;61.80
31731;DHT22;18310;55.586;12.286;2022-10-01T09:58:34;16.50;61.10
31731;DHT22;18310;55.586;12.286;2022-10-01T10:01:44;16.50;61.40
31731;DHT22;18310;55.586;12.286;2022-10-01T10:04:59;16.60;60.80
31731;DHT22;18310;55.586;12.286;2022-10-01T10:08:08;16.60;60.90
31731;DHT22;18310;55.586;12.286;2022-10-01T10:11:20;16.70;61.10
31731;DHT22;18310;55.586;12.286;2022-10-01T10:14:29;16.70;60.60
31731;DHT22;18310;55.586;12.286;2022-10-01T10:17:35;16.60;60.50
31731;DHT22;18310;55.586;12.286;2022-10-01T10:20:50;16.60;60.50
31731;DHT22;18310;55.586;12.286;2022-10-01T10:23:57;16.60;60.70
31731;DHT22;18310;55.586;12.286;2022-10-01T10:27:04;16.60;61.00
31731;DHT22;18310;55.586;12.286;2022-10-01T10:30:14;16.60;61.30
31731;DHT22;18310;55.586;12.286;2022-10-01T10:33:21;16.60;60.60
31731;DHT22;18310;55.586;12.286;2022-10-01T10:36:29;16.60;60.60
31731;DHT22;18310;55.586;12.286;2022-10-01T10:39:38;17.40;61.10
31731;DHT22;18310;55.586;12.286;2022-10-01T10:42:46;16.60;60.40
31731;DHT22;18310;55.586;12.286;2022-10-01T10:45:52;16.40;60.60
31731;DHT22;18310;55.586;12.286;2022-10-01T10:49:03;16.60;61.10
31731;DHT22;18310;55.586;12.286;2022-10-01T10:52:18;16.50;61.30
31731;DHT22;18310;55.586;12.286;2022-10-01T10:55:27;16.40;61.90
31731;DHT22;18310;55.586;12.286;2022-10-01T10:58:33;16.50;62.10
31731;DHT22;18310;55.586;12.286;2022-10-01T11:01:43;16.60;62.80
31731;DHT22;18310;55.586;12.286;2022-10-01T11:04:52;16.30;63.10
31731;DHT22;18310;55.586;12.286;2022-10-01T11:07:59;16.20;63.50
31731;DHT22;18310;55.586;12.286;2022-10-01T11:11:13;16.10;63.90
31731;DHT22;18310;55.586;12.286;2022-10-01T11:14:34;16.00;64.50
31731;DHT22;18310;55.586;12.286;2022-10-01T11:18:11;15.90;65.10
31731;DHT22;18310;55.586;12.286;2022-10-01T11:21:38;15.90;65.60
31731;DHT22;18310;55.586;12.286;2022-10-01T11:25:04;16.00;65.90
31731;DHT22;18310;55.586;12.286;2022-10-01T11:28:28;15.80;66.30
31731;DHT22;18310;55.586;12.286;2022-10-01T11:31:44;15.70;66.80
31731;DHT22;18310;55.586;12.286;2022-10-01T11:35:15;15.70;66.80
31731;DHT22;18310;55.586;12.286;2022-10-01T11:38:47;15.70;67.20
31731;DHT22;18310;55.586;12.286;2022-10-01T11:41:59;15.90;67.40
31731;DHT22;18310;55.586;12.286;2022-10-01T11:45:12;15.60;67.90
31731;DHT22;18310;55.586;12.286;2022-10-01T11:48:25;14.60;67.00
31731;DHT22;18310;55.586;12.286;2022-10-01T11:51:37;15.60;67.90
31731;DHT22;18310;55.586;12.286;2022-10-01T11:54:53;15.60;68.10
31731;DHT22;18310;55.586;12.286;2022-10-01T11:58:28;15.50;68.60
31731;DHT22;18310;55.586;12.286;2022-10-01T12:02:02;15.50;68.80
31731;DHT22;18310;55.586;12.286;2022-10-01T12:05:19;15.40;69.10
31731;DHT22;18310;55.586;12.286;2022-10-01T12:08:27;15.40;69.30
31731;DHT22;18310;55.586;12.286;2022-10-01T12:11:39;15.40;69.60
31731;DHT22;18310;55.586;12.286;2022-10-01T12:14:53;15.40;70.30
31731;DHT22;18310;55.586;12.286;2022-10-01T12:18:19;15.30;70.60
31731;DHT22;18310;55.586;12.286;2022-10-01T12:21:32;15.30;71.10
31731;DHT22;18310;55.586;12.286;2022-10-01T12:24:41;15.30;70.80
31731;DHT22;18310;55.586;12.286;2022-10-01T12:27:57;14.90;70.40
31731;DHT22;18310;55.586;12.286;2022-10-01T12:31:11;15.30;71.60
31731;DHT22;18310;55.586;12.286;2022-10-01T12:34:28;15.30;70.90
31731;DHT22;18310;55.586;12.286;2022-10-01T12:37:45;15.30;71.90
31731;DHT22;18310;55.586;12.286;2022-10-01T12:41:15;15.30;71.60
31731;DHT22;18310;55.586;12.286;2022-10-01T12:44:38;15.30;71.90
31731;DHT22;18310;55.586;12.286;2022-10-01T12:47:58;15.90;72.30
31731;DHT22;18310;55.586;12.286;2022-10-01T12:51:27;15.30;71.70
31731;DHT22;18310;55.586;12.286;2022-10-01T12:58:39;15.20;71.90
31731;DHT22;18310;55.586;12.286;2022-10-01T13:02:03;15.20;72.20
31731;DHT22;18310;55.586;12.286;2022-10-01T13:05:26;15.20;72.30
31731;DHT22;18310;55.586;12.286;2022-10-01T13:08:49;15.10;72.40
31731;DHT22;18310;55.586;12.286;2022-10-01T13:12:13;15.10;72.60
31731;DHT22;18310;55.586;12.286;2022-10-01T13:15:31;15.10;73.60
31731;DHT22;18310;55.586;12.286;2022-10-01T13:18:51;15.10;72.60
31731;DHT22;18310;55.586;12.286;2022-10-01T13:22:04;15.20;73.30
31731;DHT22;18310;55.586;12.286;2022-10-01T13:25:26;15.30;73.00
31731;DHT22;18310;55.586;12.286;2022-10-01T13:28:55;15.20;73.20
31731;DHT22;18310;55.586;12.286;2022-10-01T13:32:24;15.50;73.70
31731;DHT22;18310;55.586;12.286;2022-10-01T13:35:33;15.20;73.30
31731;DHT22;18310;55.586;12.286;2022-10-01T13:38:41;15.30;73.10
31731;DHT22;18310;55.586;12.286;2022-10-01T13:41:46;15.30;72.90
31731;DHT22;18310;55.586;12.286;2022-10-01T13:44:53;15.30;72.90
31731;DHT22;18310;55.586;12.286;2022-10-01T13:48:06;15.30;72.80
31731;DHT22;18310;55.586;12.286;2022-10-01T13:51:17;15.30;73.20
31731;DHT22;18310;55.586;12.286;2022-10-01T13:54:25;15.40;72.90
31731;DHT22;18310;55.586;12.286;2022-10-01T13:57:33;15.40;72.80
31731;DHT22;18310;55.586;12.286;2022-10-01T14:00:47;15.50;72.70
31731;DHT22;18310;55.586;12.286;2022-10-01T14:03:54;15.50;73.00
31731;DHT22;18310;55.586;12.286;2022-10-01T14:07:15;15.50;72.70
31731;DHT22;18310;55.586;12.286;2022-10-01T14:10:31;15.60;73.00
31731;DHT22;18310;55.586;12.286;2022-10-01T14:14:08;15.60;73.00
31731;DHT22;18310;55.586;12.286;2022-10-01T14:17:32;15.60;73.00
31731;DHT22;18310;55.586;12.286;2022-10-01T14:20:48;15.60;72.70
31731;DHT22;18310;55.586;12.286;2022-10-01T14:24:04;15.60;73.60
31731;DHT22;18310;55.586;12.286;2022-10-01T14:27:20;15.70;72.80
31731;DHT22;18310;55.586;12.286;2022-10-01T14:30:35;15.70;72.60
31731;DHT22;18310;55.586;12.286;2022-10-01T14:34:10;15.80;72.80
31731;DHT22;18310;55.586;12.286;2022-10-01T14:37:36;15.80;73.10
31731;DHT22;18310;55.586;12.286;2022-10-01T14:40:44;15.80;72.60
31731;DHT22;18310;55.586;12.286;2022-10-01T14:43:48;15.80;72.60
31731;DHT22;18310;55.586;12.286;2022-10-01T14:46:52;16.30;72.70
31731;DHT22;18310;55.586;12.286;2022-10-01T14:50:08;15.70;72.40
31731;DHT22;18310;55.586;12.286;2022-10-01T14:53:14;15.50;72.80
31731;DHT22;18310;55.586;12.286;2022-10-01T14:56:20;15.90;72.80
31731;DHT22;18310;55.586;12.286;2022-10-01T14:59:29;16.00;72.90
31731;DHT22;18310;55.586;12.286;2022-10-01T15:02:43;16.00;73.10
31731;DHT22;18310;55.586;12.286;2022-10-01T15:05:49;16.10;73.20
31731;DHT22;18310;55.586;12.286;2022-10-01T15:08:54;16.10;73.00
31731;DHT22;18310;55.586;12.286;2022-10-01T15:12:11;16.20;72.80
31731;DHT22;18310;55.586;12.286;2022-10-01T15:15:18;16.20;72.70
31731;DHT22;18310;55.586;12.286;2022-10-01T15:18:23;16.30;72.40
31731;DHT22;18310;55.586;12.286;2022-10-01T15:21:33;16.30;72.30
31731;DHT22;18310;55.586;12.286;2022-10-01T15:24:41;16.30;72.40
31731;DHT22;18310;55.586;12.286;2022-10-01T15:27:47;16.30;72.20
31731;DHT22;18310;55.586;12.286;2022-10-01T15:30:55;16.30;71.90
31731;DHT22;18310;55.586;12.286;2022-10-01T15:34:00;16.30;71.80
31731;DHT22;18310;55.586;12.286;2022-10-01T15:37:05;15.20;71.10
31731;DHT22;18310;55.586;12.286;2022-10-01T15:40:22;16.30;72.20
31731;DHT22;18310;55.586;12.286;2022-10-01T15:43:34;16.20;71.80
31731;DHT22;18310;55.586;12.286;2022-10-01T15:46:40;16.20;71.70
31731;DHT22;18310;55.586;12.286;2022-10-01T15:50:00;16.20;71.50
31731;DHT22;18310;55.586;12.286;2022-10-01T15:53:06;16.30;72.10
31731;DHT22;18310;55.586;12.286;2022-10-01T15:56:20;16.10;71.90
31731;DHT22;18310;55.586;12.286;2022-10-01T15:59:27;16.10;72.00
31731;DHT22;18310;55.586;12.286;2022-10-01T16:02:32;15.40;71.60
31731;DHT22;18310;55.586;12.286;2022-10-01T16:05:36;16.00;71.90
31731;DHT22;18310;55.586;12.286;2022-10-01T16:08:59;16.00;71.90
31731;DHT22;18310;55.586;12.286;2022-10-01T16:12:19;16.00;72.30
31731;DHT22;18310;55.586;12.286;2022-10-01T16:15:26;16.00;72.40
31731;DHT22;18310;55.586;12.286;2022-10-01T16:18:30;15.90;72.00
31731;DHT22;18310;55.586;12.286;2022-10-01T16:21:39;15.90;71.80
31731;DHT22;18310;55.586;12.286;2022-10-01T16:24:43;15.10;71.50
31731;DHT22;18310;55.586;12.286;2022-10-01T16:27:49;15.80;71.80
31731;DHT22;18310;55.586;12.286;2022-10-01T16:30:59;15.70;71.70
31731;DHT22;18310;55.586;12.286;2022-10-01T16:34:10;15.70;71.90
31731;DHT22;18310;55.586;12.286;2022-10-01T16:37:13;15.60;72.30
31731;DHT22;18310;55.586;12.286;2022-10-01T16:40:18;15.60;72.50
31731;DHT22;18310;55.586;12.286;2022-10-01T16:43:23;15.50;72.10
31731;DHT22;18310;55.586;12.286;2022-10-01T16:46:28;15.00;71.90
31731;DHT22;18310;55.586;12.286;2022-10-01T16:49:31;15.40;72.20
31731;DHT22;18310;55.586;12.286;2022-10-01T16:52:35;15.00;71.90
31731;DHT22;18310;55.586;12.286;2022-10-01T16:55:39;15.40;73.00
31731;DHT22;18310;55.586;12.286;2022-10-01T16:58:42;15.30;72.00
31731;DHT22;18310;55.586;12.286;2022-10-01T17:01:48;15.20;72.10
31731;DHT22;18310;55.586;12.286;2022-10-01T17:04:51;14.70;72.20
31731;DHT22;18310;55.586;12.286;2022-10-01T17:07:55;15.10;72.60
31731;DHT22;18310;55.586;12.286;2022-10-01T17:11:01;15.00;72.60
31731;DHT22;18310;55.586;12.286;2022-10-01T17:14:04;15.00;73.00
31731;DHT22;18310;55.586;12.286;2022-10-01T17:17:10;15.00;73.10
31731;DHT22;18310;55.586;12.286;2022-10-01T17:20:13;15.00;74.00
31731;DHT22;18310;55.586;12.286;2022-10-01T17:23:18;15.00;73.20
31731;DHT22;18310;55.586;12.286;2022-10-01T17:26:22;15.00;74.00
31731;DHT22;18310;55.586;12.286;2022-10-01T17:29:26;15.40;73.80
31731;DHT22;18310;55.586;12.286;2022-10-01T17:32:33;15.00;73.70
31731;DHT22;18310;55.586;12.286;2022-10-01T17:35:40;15.00;74.00
31731;DHT22;18310;55.586;12.286;2022-10-01T17:38:44;15.00;74.10
31731;DHT22;18310;55.586;12.286;2022-10-01T17:41:47;15.10;74.10
31731;DHT22;18310;55.586;12.286;2022-10-01T17:44:50;15.00;74.10
31731;DHT22;18310;55.586;12.286;2022-10-01T17:47:56;15.10;74.10
31731;DHT22;18310;55.586;12.286;2022-10-01T17:51:04;15.10;74.20
31731;DHT22;18310;55.586;12.286;2022-10-01T17:54:09;15.10;74.20
31731;DHT22;18310;55.586;12.286;2022-10-01T17:57:12;15.10;74.20
31731;DHT22;18310;55.586;12.286;2022-10-01T18:00:15;15.10;74.20
31731;DHT22;18310;55.586;12.286;2022-10-01T18:03:20;15.10;74.30
31731;DHT22;18310;55.586;12.286;2022-10-01T18:06:24;15.20;74.50
31731;DHT22;18310;55.586;12.286;2022-10-01T18:09:28;15.20;74.50
31731;DHT22;18310;55.586;12.286;2022-10-01T18:12:31;15.20;74.50
31731;DHT22;18310;55.586;12.286;2022-10-01T18:15:34;15.20;74.30
31731;DHT22;18310;55.586;12.286;2022-10-01T18:18:39;15.20;74.20
31731;DHT22;18310;55.586;12.286;2022-10-01T18:22:04;15.20;74.10
31731;DHT22;18310;55.586;12.286;2022-10-01T18:25:15;15.20;73.70
31731;DHT22;18310;55.586;12.286;2022-10-01T18:28:21;15.20;73.70
31731;DHT22;18310;55.586;12.286;2022-10-01T18:31:33;15.30;73.90
31731;DHT22;18310;55.586;12.286;2022-10-01T18:34:44;16.00;74.20
31731;DHT22;18310;55.586;12.286;2022-10-01T18:37:51;15.00;73.90
31731;DHT22;18310;55.586;12.286;2022-10-01T18:41:02;15.00;73.80
31731;DHT22;18310;55.586;12.286;2022-10-01T18:44:13;14.80;73.80
31731;DHT22;18310;55.586;12.286;2022-10-01T18:47:27;14.80;73.80
31731;DHT22;18310;55.586;12.286;2022-10-01T18:50:44;14.10;73.70
31731;DHT22;18310;55.586;12.286;2022-10-01T18:54:13;14.70;74.00
31731;DHT22;18310;55.586;12.286;2022-10-01T18:57:49;14.60;74.30
31731;DHT22;18310;55.586;12.286;2022-10-01T19:01:11;14.60;74.50
31731;DHT22;18310;55.586;12.286;2022-10-01T19:04:40;14.50;74.30
31731;DHT22;18310;55.586;12.286;2022-10-01T19:08:13;14.50;74.60
31731;DHT22;18310;55.586;12.286;2022-10-01T19:11:32;14.40;74.50
31731;DHT22;18310;55.586;12.286;2022-10-01T19:14:56;14.40;74.40
31731;DHT22;18310;55.586;12.286;2022-10-01T19:18:19;14.40;74.90
31731;DHT22;18310;55.586;12.286;2022-10-01T19:21:42;14.00;74.70
31731;DHT22;18310;55.586;12.286;2022-10-01T19:25:04;14.30;74.70
31731;DHT22;18310;55.586;12.286;2022-10-01T19:28:29;14.20;74.90
31731;DHT22;18310;55.586;12.286;2022-10-01T19:31:47;14.20;75.00
31731;DHT22;18310;55.586;12.286;2022-10-01T19:34:59;14.20;74.80
31731;DHT22;18310;55.586;12.286;2022-10-01T19:38:12;14.10;75.00
31731;DHT22;18310;55.586;12.286;2022-10-01T19:41:26;14.10;75.20
31731;DHT22;18310;55.586;12.286;2022-10-01T19:44:40;14.10;75.40